sensor_id;sensor_type;location;lat;lon;timestamp;pressure;altitude;pressure_sealevel;temperature;humidity
14612;BME280;7392;52.078;11.650;2023-05-12T00:00:41;100898.06;;;14.43;77.35
14612;BME280;7392;52.078;11.650;2023-05-12T00:03:09;100903.41;;;14.44;78.95
14612;BME280;7392;52.078;11.650;2023-05-12T00:05:37;100898.06;;;14.43;79.50
14612;BME280;7392;52.078;11.650;2023-05-12T00:08:06;100899.03;;;14.40;79.53
14612;BME280;7392;52.078;11.650;2023-05-12T00:10:34;100905.25;;;14.39;80.08
14612;BME280;7392;52.078;11.650;2023-05-12T00:13:02;100891.97;;;14.34;80.08
14612;BME280;7392;52.078;11.650;2023-05-12T00:15:30;100895.59;;;14.32;81.01
14612;BME280;7392;52.078;11.650;2023-05-12T00:17:57;100899.16;;;14.29;81.33
14612;BME280;7392;52.078;11.650;2023-05-12T00:20:25;100909.91;;;14.26;81.56
14612;BME280;7392;52.078;11.650;2023-05-12T00:22:53;100901.94;;;14.23;81.87
14612;BME280;7392;52.078;11.650;2023-05-12T00:25:22;100902.00;;;14.18;82.20
14612;BME280;7392;52.078;11.650;2023-05-12T00:27:50;100897.63;;;14.14;82.01
14612;BME280;7392;52.078;11.650;2023-05-12T00:30:17;100896.75;;;14.12;82.20
14612;BME280;7392;52.078;11.650;2023-05-12T00:32:45;100899.53;;;14.05;82.10
14612;BME280;7392;52.078;11.650;2023-05-12T00:35:14;100904.94;;;14.00;81.94
14612;BME280;7392;52.078;11.650;2023-05-12T00:37:42;100907.66;;;13.95;83.02
14612;BME280;7392;52.078;11.650;2023-05-12T00:40:10;100907.75;;;13.91;83.05
14612;BME280;7392;52.078;11.650;2023-05-12T00:42:40;100908.69;;;13.85;83.27
14612;BME280;7392;52.078;11.650;2023-05-12T00:45:10;100913.19;;;13.80;83.69
14612;BME280;7392;52.078;11.650;2023-05-12T00:47:38;100911.50;;;13.74;83.81
14612;BME280;7392;52.078;11.650;2023-05-12T00:50:07;100911.63;;;13.67;83.28
14612;BME280;7392;52.078;11.650;2023-05-12T00:52:35;100915.22;;;13.61;83.56
14612;BME280;7392;52.078;11.650;2023-05-12T00:55:04;100912.63;;;13.56;84.11
14612;BME280;7392;52.078;11.650;2023-05-12T00:57:32;100910.88;;;13.51;83.98
14612;BME280;7392;52.078;11.650;2023-05-12T01:00:02;100917.22;;;13.42;83.75
14612;BME280;7392;52.078;11.650;2023-05-12T01:02:31;100910.22;;;13.33;83.84
14612;BME280;7392;52.078;11.650;2023-05-12T01:04:59;100917.34;;;13.26;83.89
14612;BME280;7392;52.078;11.650;2023-05-12T01:07:30;100923.66;;;13.19;83.90
14612;BME280;7392;52.078;11.650;2023-05-12T01:09:59;100921.94;;;13.14;84.85
14612;BME280;7392;52.078;11.650;2023-05-12T01:12:31;100924.66;;;13.07;85.14
14612;BME280;7392;52.078;11.650;2023-05-12T01:15:03;100920.28;;;13.02;85.57
14612;BME280;7392;52.078;11.650;2023-05-12T01:17:31;100930.13;;;12.95;85.49
14612;BME280;7392;52.078;11.650;2023-05-12T01:20:06;100928.41;;;12.88;85.59
14612;BME280;7392;52.078;11.650;2023-05-12T01:22:36;100927.59;;;12.80;85.77
14612;BME280;7392;52.078;11.650;2023-05-12T01:25:07;100934.72;;;12.76;86.52
14612;BME280;7392;52.078;11.650;2023-05-12T01:27:39;100932.09;;;12.70;86.83
14612;BME280;7392;52.078;11.650;2023-05-12T01:30:08;100933.91;;;12.65;87.32
14612;BME280;7392;52.078;11.650;2023-05-12T01:32:37;100940.19;;;12.59;87.56
14612;BME280;7392;52.078;11.650;2023-05-12T01:35:06;100937.53;;;12.56;88.29
14612;BME280;7392;52.078;11.650;2023-05-12T01:37:37;100937.56;;;12.50;88.29
14612;BME280;7392;52.078;11.650;2023-05-12T01:40:05;100934.97;;;12.44;88.66
14612;BME280;7392;52.078;11.650;2023-05-12T01:42:34;100941.19;;;12.40;88.90
14612;BME280;7392;52.078;11.650;2023-05-12T01:45:03;100929.69;;;12.34;88.95
14612;BME280;7392;52.078;11.650;2023-05-12T01:47:31;100931.47;;;12.31;89.27
14612;BME280;7392;52.078;11.650;2023-05-12T01:50:05;100941.28;;;12.27;89.77
14612;BME280;7392;52.078;11.650;2023-05-12T01:52:33;100931.56;;;12.23;89.95
14612;BME280;7392;52.078;11.650;2023-05-12T01:55:02;100949.31;;;12.20;90.18
14612;BME280;7392;52.078;11.650;2023-05-12T01:57:36;100948.44;;;12.16;90.67
14612;BME280;7392;52.078;11.650;2023-05-12T02:00:06;100949.34;;;12.13;90.87
14612;BME280;7392;52.078;11.650;2023-05-12T02:02:38;100947.59;;;12.09;90.92
14612;BME280;7392;52.078;11.650;2023-05-12T02:05:10;100954.69;;;12.07;91.35
14612;BME280;7392;52.078;11.650;2023-05-12T02:07:39;100960.94;;;12.03;91.42
14612;BME280;7392;52.078;11.650;2023-05-12T02:10:08;100954.75;;;12.00;91.84
14612;BME280;7392;52.078;11.650;2023-05-12T02:12:36;100964.53;;;11.97;92.41
14612;BME280;7392;52.078;11.650;2023-05-12T02:15:06;100959.19;;;11.96;92.61
14612;BME280;7392;52.078;11.650;2023-05-12T02:17:37;100962.75;;;11.93;92.65
14612;BME280;7392;52.078;11.650;2023-05-12T02:20:07;100960.09;;;11.92;92.33
14612;BME280;7392;52.078;11.650;2023-05-12T02:22:37;100958.31;;;11.89;92.64
14612;BME280;7392;52.078;11.650;2023-05-12T02:25:05;100964.50;;;11.88;92.51
14612;BME280;7392;52.078;11.650;2023-05-12T02:27:34;100961.84;;;11.87;93.14
14612;BME280;7392;52.078;11.650;2023-05-12T02:30:02;100963.63;;;11.86;92.57
14612;BME280;7392;52.078;11.650;2023-05-12T02:32:32;100968.97;;;11.86;93.12
14612;BME280;7392;52.078;11.650;2023-05-12T02:35:00;100967.16;;;11.85;93.29
14612;BME280;7392;52.078;11.650;2023-05-12T02:37:28;100971.63;;;11.85;93.62
14612;BME280;7392;52.078;11.650;2023-05-12T02:39:56;100977.81;;;11.87;94.00
14612;BME280;7392;52.078;11.650;2023-05-12T02:42:24;100959.19;;;11.85;94.26
14612;BME280;7392;52.078;11.650;2023-05-12T02:44:54;100969.88;;;11.84;93.58
14612;BME280;7392;52.078;11.650;2023-05-12T02:47:22;100967.22;;;11.82;93.85
14612;BME280;7392;52.078;11.650;2023-05-12T02:49:51;100965.44;;;11.83;94.50
14612;BME280;7392;52.078;11.650;2023-05-12T02:52:21;100954.78;;;11.81;95.09
14612;BME280;7392;52.078;11.650;2023-05-12T02:54:49;100960.97;;;11.82;95.04
14612;BME280;7392;52.078;11.650;2023-05-12T02:57:17;100963.63;;;11.83;95.47
14612;BME280;7392;52.078;11.650;2023-05-12T02:59:45;100959.22;;;11.82;95.62
14612;BME280;7392;52.078;11.650;2023-05-12T03:02:12;100960.09;;;11.83;95.66
14612;BME280;7392;52.078;11.650;2023-05-12T03:04:40;100956.56;;;11.82;95.79
14612;BME280;7392;52.078;11.650;2023-05-12T03:07:09;100968.09;;;11.84;95.82
14612;BME280;7392;52.078;11.650;2023-05-12T03:09:37;100960.09;;;11.83;96.20
14612;BME280;7392;52.078;11.650;2023-05-12T03:12:06;100968.97;;;11.85;96.46
14612;BME280;7392;52.078;11.650;2023-05-12T03:14:34;100964.53;;;11.84;96.18
14612;BME280;7392;52.078;11.650;2023-05-12T03:17:02;100963.63;;;11.83;95.75
14612;BME280;7392;52.078;11.650;2023-05-12T03:19:30;100964.56;;;11.82;95.93
14612;BME280;7392;52.078;11.650;2023-05-12T03:21:57;100962.75;;;11.83;95.93
14612;BME280;7392;52.078;11.650;2023-05-12T03:24:26;100965.41;;;11.84;96.03
14612;BME280;7392;52.078;11.650;2023-05-12T03:26:54;100965.41;;;11.84;96.61
14612;BME280;7392;52.078;11.650;2023-05-12T03:29:22;100960.97;;;11.86;96.88
14612;BME280;7392;52.078;11.650;2023-05-12T03:31:50;100968.06;;;11.87;96.94
14612;BME280;7392;52.078;11.650;2023-05-12T03:34:18;100960.09;;;11.87;97.12
14612;BME280;7392;52.078;11.650;2023-05-12T03:36:47;100959.19;;;11.88;96.86
14612;BME280;7392;52.078;11.650;2023-05-12T03:39:15;100965.41;;;11.87;96.65
14612;BME280;7392;52.078;11.650;2023-05-12T03:41:44;100960.97;;;11.86;96.15
14612;BME280;7392;52.078;11.650;2023-05-12T03:44:12;100960.97;;;11.85;96.23
14612;BME280;7392;52.078;11.650;2023-05-12T03:46:40;100956.53;;;11.87;96.47
14612;BME280;7392;52.078;11.650;2023-05-12T03:49:08;100961.84;;;11.87;96.29
14612;BME280;7392;52.078;11.650;2023-05-12T03:51:36;100952.09;;;11.87;96.95
14612;BME280;7392;52.078;11.650;2023-05-12T03:54:04;100961.84;;;11.88;96.57
14612;BME280;7392;52.078;11.650;2023-05-12T03:56:32;100957.44;;;11.89;96.49
14612;BME280;7392;52.078;11.650;2023-05-12T03:59:01;100960.09;;;11.89;96.54
14612;BME280;7392;52.078;11.650;2023-05-12T04:01:29;100963.63;;;11.89;96.26
14612;BME280;7392;52.078;11.650;2023-05-12T04:03:59;100964.50;;;11.90;96.28
14612;BME280;7392;52.078;11.650;2023-05-12T04:06:27;100967.19;;;11.91;96.54
14612;BME280;7392;52.078;11.650;2023-05-12T04:08:55;100961.88;;;11.91;96.56
14612;BME280;7392;52.078;11.650;2023-05-12T04:11:24;100966.31;;;11.92;96.50
14612;BME280;7392;52.078;11.650;2023-05-12T04:13:52;100976.03;;;11.96;96.89
14612;BME280;7392;52.078;11.650;2023-05-12T04:16:21;100981.38;;;11.98;96.87
14612;BME280;7392;52.078;11.650;2023-05-12T04:18:49;100977.81;;;11.99;96.96
14612;BME280;7392;52.078;11.650;2023-05-12T04:21:17;100981.34;;;12.03;96.93
14612;BME280;7392;52.078;11.650;2023-05-12T04:23:45;100971.59;;;12.03;96.72
14612;BME280;7392;52.078;11.650;2023-05-12T04:26:13;100972.44;;;12.05;96.82
14612;BME280;7392;52.078;11.650;2023-05-12T04:28:41;100973.31;;;12.09;97.26
14612;BME280;7392;52.078;11.650;2023-05-12T04:31:09;100975.09;;;12.11;97.16
14612;BME280;7392;52.078;11.650;2023-05-12T04:33:38;100987.50;;;12.15;97.26
14612;BME280;7392;52.078;11.650;2023-05-12T04:36:06;100991.94;;;12.16;95.92
14612;BME280;7392;52.078;11.650;2023-05-12T04:38:34;100980.38;;;12.19;95.12
14612;BME280;7392;52.078;11.650;2023-05-12T04:41:02;100989.22;;;12.21;94.10
14612;BME280;7392;52.078;11.650;2023-05-12T04:43:30;100988.34;;;12.24;93.63
14612;BME280;7392;52.078;11.650;2023-05-12T04:46:01;100995.41;;;12.28;92.93
14612;BME280;7392;52.078;11.650;2023-05-12T04:48:29;101002.50;;;12.30;91.95
14612;BME280;7392;52.078;11.650;2023-05-12T04:50:59;101005.16;;;12.33;91.71
14612;BME280;7392;52.078;11.650;2023-05-12T04:53:27;101014.03;;;12.37;91.32
14612;BME280;7392;52.078;11.650;2023-05-12T04:55:54;101014.00;;;12.40;91.31
14612;BME280;7392;52.078;11.650;2023-05-12T04:58:24;101004.22;;;12.45;91.22
14612;BME280;7392;52.078;11.650;2023-05-12T05:00:52;101002.41;;;12.49;90.87
14612;BME280;7392;52.078;11.650;2023-05-12T05:03:20;101011.25;;;12.54;90.64
14612;BME280;7392;52.078;11.650;2023-05-12T05:05:49;101005.00;;;12.60;90.63
14612;BME280;7392;52.078;11.650;2023-05-12T05:08:18;101012.06;;;12.64;90.32
14612;BME280;7392;52.078;11.650;2023-05-12T05:10:46;101007.59;;;12.69;90.45
14612;BME280;7392;52.078;11.650;2023-05-12T05:13:14;101012.03;;;12.75;90.07
14612;BME280;7392;52.078;11.650;2023-05-12T05:15:48;101019.06;;;12.80;89.86
14612;BME280;7392;52.078;11.650;2023-05-12T05:18:16;101021.72;;;12.86;89.96
14612;BME280;7392;52.078;11.650;2023-05-12T05:20:46;101032.31;;;12.93;89.40
14612;BME280;7392;52.078;11.650;2023-05-12T05:23:16;101027.81;;;12.98;89.08
14612;BME280;7392;52.078;11.650;2023-05-12T05:25:45;101026.91;;;13.03;88.96
14612;BME280;7392;52.078;11.650;2023-05-12T05:28:13;101026.84;;;13.08;87.92
14612;BME280;7392;52.078;11.650;2023-05-12T05:30:40;101030.38;;;13.15;87.85
14612;BME280;7392;52.078;11.650;2023-05-12T05:33:08;101032.13;;;13.19;87.51
14612;BME280;7392;52.078;11.650;2023-05-12T05:35:38;101030.28;;;13.25;87.22
14612;BME280;7392;52.078;11.650;2023-05-12T05:38:05;101033.81;;;13.31;86.91
14612;BME280;7392;52.078;11.650;2023-05-12T05:40:33;101035.53;;;13.39;87.25
14612;BME280;7392;52.078;11.650;2023-05-12T05:43:20;101036.31;;;13.47;87.14
14612;BME280;7392;52.078;11.650;2023-05-12T05:45:48;101037.16;;;13.54;87.20
14612;BME280;7392;52.078;11.650;2023-05-12T05:48:17;101035.31;;;13.61;87.03
14612;BME280;7392;52.078;11.650;2023-05-12T05:50:45;101030.78;;;13.68;87.19
14612;BME280;7392;52.078;11.650;2023-05-12T05:53:13;101036.06;;;13.74;85.94
14612;BME280;7392;52.078;11.650;2023-05-12T05:55:42;101040.47;;;13.79;85.34
14612;BME280;7392;52.078;11.650;2023-05-12T05:58:11;101038.59;;;13.86;85.31
14612;BME280;7392;52.078;11.650;2023-05-12T06:00:42;101034.97;;;13.93;85.48
14612;BME280;7392;52.078;11.650;2023-05-12T06:03:10;101039.31;;;14.00;85.16
14612;BME280;7392;52.078;11.650;2023-05-12T06:05:38;101041.91;;;14.10;86.05
14612;BME280;7392;52.078;11.650;2023-05-12T06:08:07;101040.91;;;14.18;85.65
14612;BME280;7392;52.078;11.650;2023-05-12T06:10:38;101049.72;;;14.25;84.76
14612;BME280;7392;52.078;11.650;2023-05-12T06:13:06;101049.63;;;14.31;84.48
14612;BME280;7392;52.078;11.650;2023-05-12T06:15:34;101047.72;;;14.41;84.93
14612;BME280;7392;52.078;11.650;2023-05-12T06:18:04;101061.84;;;14.51;84.49
14612;BME280;7392;52.078;11.650;2023-05-12T06:20:31;101062.66;;;14.61;84.96
14612;BME280;7392;52.078;11.650;2023-05-12T06:23:00;101055.38;;;14.70;84.97
14612;BME280;7392;52.078;11.650;2023-05-12T06:25:28;101069.50;;;14.80;84.34
14612;BME280;7392;52.078;11.650;2023-05-12T06:27:55;101059.59;;;14.88;83.79
14612;BME280;7392;52.078;11.650;2023-05-12T06:30:23;101055.84;;;14.99;83.47
14612;BME280;7392;52.078;11.650;2023-05-12T06:32:53;101061.03;;;15.09;83.92
14612;BME280;7392;52.078;11.650;2023-05-12T06:35:22;101064.44;;;15.21;83.54
14612;BME280;7392;52.078;11.650;2023-05-12T06:37:50;101067.88;;;15.29;82.30
14612;BME280;7392;52.078;11.650;2023-05-12T06:40:18;101067.69;;;15.40;82.48
14612;BME280;7392;52.078;11.650;2023-05-12T06:42:45;101066.59;;;15.50;81.53
14612;BME280;7392;52.078;11.650;2023-05-12T06:45:18;101063.72;;;15.61;80.66
14612;BME280;7392;52.078;11.650;2023-05-12T06:47:47;101063.56;;;15.71;79.84
14612;BME280;7392;52.078;11.650;2023-05-12T06:50:14;101072.25;;;15.84;80.49
14612;BME280;7392;52.078;11.650;2023-05-12T06:52:44;101064.91;;;15.96;80.15
14612;BME280;7392;52.078;11.650;2023-05-12T06:55:12;101069.16;;;16.07;79.27
14612;BME280;7392;52.078;11.650;2023-05-12T06:57:45;101071.56;;;16.20;79.04
14612;BME280;7392;52.078;11.650;2023-05-12T07:00:13;101070.44;;;16.32;78.31
14612;BME280;7392;52.078;11.650;2023-05-12T07:02:41;101075.47;;;16.47;78.03
14612;BME280;7392;52.078;11.650;2023-05-12T07:05:09;101062.69;;;16.60;78.12
14612;BME280;7392;52.078;11.650;2023-05-12T07:07:37;101067.72;;;16.74;78.46
14612;BME280;7392;52.078;11.650;2023-05-12T07:10:07;101069.31;;;16.84;78.38
14612;BME280;7392;52.078;11.650;2023-05-12T07:12:35;101075.38;;;16.92;77.79
14612;BME280;7392;52.078;11.650;2023-05-12T07:15:04;101065.41;;;16.99;76.45
14612;BME280;7392;52.078;11.650;2023-05-12T07:17:32;101075.91;;;17.10;75.92
14612;BME280;7392;52.078;11.650;2023-05-12T07:20:00;101080.22;;;17.15;74.49
14612;BME280;7392;52.078;11.650;2023-05-12T07:22:30;101082.81;;;17.20;73.90
14612;BME280;7392;52.078;11.650;2023-05-12T07:24:58;101081.75;;;17.26;74.08
14612;BME280;7392;52.078;11.650;2023-05-12T07:27:27;101075.34;;;17.31;74.10
14612;BME280;7392;52.078;11.650;2023-05-12T07:29:56;101084.00;;;17.44;73.95
14612;BME280;7392;52.078;11.650;2023-05-12T07:32:23;101085.72;;;17.45;72.97
14612;BME280;7392;52.078;11.650;2023-05-12T07:34:52;101085.81;;;17.42;72.25
14612;BME280;7392;52.078;11.650;2023-05-12T07:37:20;101092.94;;;17.43;71.25
14612;BME280;7392;52.078;11.650;2023-05-12T07:39:48;101090.03;;;17.52;71.37
14612;BME280;7392;52.078;11.650;2023-05-12T07:42:15;101094.22;;;17.63;72.06
14612;BME280;7392;52.078;11.650;2023-05-12T07:44:44;101098.53;;;17.70;71.83
14612;BME280;7392;52.078;11.650;2023-05-12T07:47:12;101091.22;;;17.76;71.79
14612;BME280;7392;52.078;11.650;2023-05-12T07:49:40;101087.44;;;17.84;70.78
14612;BME280;7392;52.078;11.650;2023-05-12T07:52:08;101089.84;;;17.94;70.71
14612;BME280;7392;52.078;11.650;2023-05-12T07:54:36;101088.59;;;18.08;71.31
14612;BME280;7392;52.078;11.650;2023-05-12T07:57:03;101090.97;;;18.19;70.48
14612;BME280;7392;52.078;11.650;2023-05-12T07:59:31;101088.91;;;18.28;70.62
14612;BME280;7392;52.078;11.650;2023-05-12T08:02:00;101087.63;;;18.42;70.98
14612;BME280;7392;52.078;11.650;2023-05-12T08:04:28;101081.91;;;18.53;70.10
14612;BME280;7392;52.078;11.650;2023-05-12T08:06:56;101083.53;;;18.58;65.14
14612;BME280;7392;52.078;11.650;2023-05-12T08:09:24;101078.91;;;18.63;62.54
14612;BME280;7392;52.078;11.650;2023-05-12T08:11:51;101078.59;;;18.74;62.67
14612;BME280;7392;52.078;11.650;2023-05-12T08:14:19;101093.38;;;18.89;62.82
14612;BME280;7392;52.078;11.650;2023-05-12T08:16:48;101082.25;;;19.01;62.67
14612;BME280;7392;52.078;11.650;2023-05-12T08:19:17;101086.41;;;19.12;62.02
14612;BME280;7392;52.078;11.650;2023-05-12T08:21:45;101079.75;;;19.23;61.74
14612;BME280;7392;52.078;11.650;2023-05-12T08:24:12;101088.28;;;19.36;62.01
14612;BME280;7392;52.078;11.650;2023-05-12T08:26:41;101079.78;;;19.49;61.92
14612;BME280;7392;52.078;11.650;2023-05-12T08:29:09;101081.94;;;19.64;61.97
14612;BME280;7392;52.078;11.650;2023-05-12T08:31:37;101073.50;;;19.76;60.72
14612;BME280;7392;52.078;11.650;2023-05-12T08:34:05;101078.53;;;19.86;60.13
14612;BME280;7392;52.078;11.650;2023-05-12T08:36:38;101077.38;;;19.93;58.65
14612;BME280;7392;52.078;11.650;2023-05-12T08:39:06;101078.81;;;20.03;58.29
14612;BME280;7392;52.078;11.650;2023-05-12T08:41:41;101077.66;;;20.10;56.71
14612;BME280;7392;52.078;11.650;2023-05-12T08:44:10;101069.25;;;20.20;56.10
14612;BME280;7392;52.078;11.650;2023-05-12T08:46:38;101073.47;;;20.27;54.31
14612;BME280;7392;52.078;11.650;2023-05-12T08:49:09;101070.59;;;20.31;49.90
14612;BME280;7392;52.078;11.650;2023-05-12T08:51:43;101074.97;;;20.34;48.03
14612;BME280;7392;52.078;11.650;2023-05-12T08:54:23;101074.53;;;20.46;48.18
14612;BME280;7392;52.078;11.650;2023-05-12T08:56:53;101068.66;;;20.59;48.35
14612;BME280;7392;52.078;11.650;2023-05-12T08:59:25;101070.16;;;20.67;46.35
14612;BME280;7392;52.078;11.650;2023-05-12T09:01:53;101072.47;;;20.77;45.16
14612;BME280;7392;52.078;11.650;2023-05-12T09:04:21;101073.81;;;20.88;44.28
14612;BME280;7392;52.078;11.650;2023-05-12T09:06:50;101060.44;;;21.07;45.47
14612;BME280;7392;52.078;11.650;2023-05-12T09:09:22;101058.94;;;21.22;44.75
14612;BME280;7392;52.078;11.650;2023-05-12T09:11:55;101062.81;;;21.37;44.76
14612;BME280;7392;52.078;11.650;2023-05-12T09:14:25;101061.03;;;21.58;45.38
14612;BME280;7392;52.078;11.650;2023-05-12T09:16:56;101062.09;;;21.76;43.93
14612;BME280;7392;52.078;11.650;2023-05-12T09:19:27;101063.00;;;21.96;43.45
14612;BME280;7392;52.078;11.650;2023-05-12T09:21:59;101056.91;;;22.11;42.00
14612;BME280;7392;52.078;11.650;2023-05-12T09:24:34;101050.75;;;22.28;39.96
14612;BME280;7392;52.078;11.650;2023-05-12T09:27:03;101062.03;;;22.38;39.06
14612;BME280;7392;52.078;11.650;2023-05-12T09:29:31;101064.09;;;22.52;39.52
14612;BME280;7392;52.078;11.650;2023-05-12T09:32:13;101063.72;;;22.78;40.71
14612;BME280;7392;52.078;11.650;2023-05-12T09:34:42;101053.69;;;23.00;39.89
14612;BME280;7392;52.078;11.650;2023-05-12T09:37:11;101054.94;;;23.11;37.15
14612;BME280;7392;52.078;11.650;2023-05-12T09:39:40;101061.19;;;23.31;37.34
14612;BME280;7392;52.078;11.650;2023-05-12T09:42:11;101063.44;;;23.40;34.22
14612;BME280;7392;52.078;11.650;2023-05-12T09:44:39;101055.63;;;23.51;34.64
14612;BME280;7392;52.078;11.650;2023-05-12T09:47:08;101071.22;;;23.64;34.52
14612;BME280;7392;52.078;11.650;2023-05-12T09:49:36;101074.63;;;23.86;36.80
14612;BME280;7392;52.078;11.650;2023-05-12T09:52:04;101069.03;;;24.07;35.55
14612;BME280;7392;52.078;11.650;2023-05-12T09:54:33;101068.34;;;24.19;33.81
14612;BME280;7392;52.078;11.650;2023-05-12T09:57:02;101077.31;;;24.37;34.04
14612;BME280;7392;52.078;11.650;2023-05-12T09:59:32;101075.38;;;24.57;34.67
14612;BME280;7392;52.078;11.650;2023-05-12T10:02:04;101070.13;;;24.70;32.99
14612;BME280;7392;52.078;11.650;2023-05-12T10:04:36;101055.41;;;24.90;33.99
14612;BME280;7392;52.078;11.650;2023-05-12T10:07:10;101065.03;;;24.95;32.91
14612;BME280;7392;52.078;11.650;2023-05-12T10:09:41;101065.22;;;25.08;33.56
14612;BME280;7392;52.078;11.650;2023-05-12T10:12:11;101062.25;;;25.29;33.87
14612;BME280;7392;52.078;11.650;2023-05-12T10:14:39;101056.84;;;25.43;33.56
14612;BME280;7392;52.078;11.650;2023-05-12T10:17:08;101067.63;;;25.61;34.22
14612;BME280;7392;52.078;11.650;2023-05-12T10:19:40;101064.34;;;25.70;31.53
14612;BME280;7392;52.078;11.650;2023-05-12T10:22:09;101054.28;;;25.86;33.08
14612;BME280;7392;52.078;11.650;2023-05-12T10:24:38;101061.78;;;26.11;33.85
14612;BME280;7392;52.078;11.650;2023-05-12T10:27:08;101062.31;;;26.33;32.99
14612;BME280;7392;52.078;11.650;2023-05-12T10:29:37;101077.19;;;26.41;31.68
14612;BME280;7392;52.078;11.650;2023-05-12T10:32:06;101061.00;;;26.53;31.70
14612;BME280;7392;52.078;11.650;2023-05-12T10:34:36;101063.34;;;26.73;33.80
14612;BME280;7392;52.078;11.650;2023-05-12T10:37:05;101066.25;;;26.99;33.81
14612;BME280;7392;52.078;11.650;2023-05-12T10:39:34;101058.97;;;27.12;32.51
14612;BME280;7392;52.078;11.650;2023-05-12T10:42:05;101060.91;;;27.24;32.68
14612;BME280;7392;52.078;11.650;2023-05-12T10:44:48;101059.25;;;27.49;32.90
14612;BME280;7392;52.078;11.650;2023-05-12T10:47:16;101053.72;;;27.76;34.26
14612;BME280;7392;52.078;11.650;2023-05-12T10:49:44;101059.66;;;27.96;33.16
14612;BME280;7392;52.078;11.650;2023-05-12T10:52:18;101055.84;;;28.11;32.21
14612;BME280;7392;52.078;11.650;2023-05-12T10:54:46;101054.97;;;28.36;33.25
14612;BME280;7392;52.078;11.650;2023-05-12T10:57:19;101056.06;;;28.60;33.45
14612;BME280;7392;52.078;11.650;2023-05-12T10:59:50;101056.59;;;28.65;28.28
14612;BME280;7392;52.078;11.650;2023-05-12T11:02:22;101057.88;;;28.72;28.73
14612;BME280;7392;52.078;11.650;2023-05-12T11:04:55;101051.19;;;28.76;28.48
14612;BME280;7392;52.078;11.650;2023-05-12T11:07:25;101049.38;;;28.64;26.12
14612;BME280;7392;52.078;11.650;2023-05-12T11:09:58;101041.53;;;28.83;29.34
14612;BME280;7392;52.078;11.650;2023-05-12T11:12:28;101049.78;;;29.07;30.75
14612;BME280;7392;52.078;11.650;2023-05-12T11:15:01;101045.09;;;29.34;30.65
14612;BME280;7392;52.078;11.650;2023-05-12T11:17:29;101048.16;;;29.29;26.74
14612;BME280;7392;52.078;11.650;2023-05-12T11:19:57;101044.31;;;29.07;27.15
14612;BME280;7392;52.078;11.650;2023-05-12T11:22:26;101051.22;;;29.00;27.29
14612;BME280;7392;52.078;11.650;2023-05-12T11:24:54;101046.78;;;29.10;27.38
14612;BME280;7392;52.078;11.650;2023-05-12T11:27:22;101048.38;;;29.26;27.97
14612;BME280;7392;52.078;11.650;2023-05-12T11:29:56;101052.34;;;29.46;28.83
14612;BME280;7392;52.078;11.650;2023-05-12T11:32:26;101043.56;;;29.65;29.56
14612;BME280;7392;52.078;11.650;2023-05-12T11:34:55;101060.75;;;29.67;28.81
14612;BME280;7392;52.078;11.650;2023-05-12T11:37:35;101051.03;;;29.63;29.26
14612;BME280;7392;52.078;11.650;2023-05-12T11:40:14;101055.88;;;29.59;28.62
14612;BME280;7392;52.078;11.650;2023-05-12T11:43:19;101059.63;;;29.70;26.96
14612;BME280;7392;52.078;11.650;2023-05-12T11:45:49;101062.38;;;29.70;27.91
14612;BME280;7392;52.078;11.650;2023-05-12T11:48:33;101062.13;;;29.37;27.63
14612;BME280;7392;52.078;11.650;2023-05-12T11:51:01;101063.03;;;29.01;27.32
14612;BME280;7392;52.078;11.650;2023-05-12T11:53:29;101066.28;;;28.82;28.82
14612;BME280;7392;52.078;11.650;2023-05-12T11:55:56;101056.16;;;28.58;27.42
14612;BME280;7392;52.078;11.650;2023-05-12T11:58:25;101052.09;;;28.64;28.13
14612;BME280;7392;52.078;11.650;2023-05-12T12:00:56;101058.94;;;28.82;29.27
14612;BME280;7392;52.078;11.650;2023-05-12T12:03:44;101068.81;;;28.72;28.30
14612;BME280;7392;52.078;11.650;2023-05-12T12:06:13;101053.69;;;28.79;29.12
14612;BME280;7392;52.078;11.650;2023-05-12T12:08:48;101056.81;;;28.99;29.33
14612;BME280;7392;52.078;11.650;2023-05-12T12:11:17;101045.50;;;29.16;28.40
14612;BME280;7392;52.078;11.650;2023-05-12T12:13:49;101056.19;;;29.43;29.57
14612;BME280;7392;52.078;11.650;2023-05-12T12:16:23;101052.03;;;29.62;28.31
14612;BME280;7392;52.078;11.650;2023-05-12T12:18:52;101043.84;;;29.73;27.72
14612;BME280;7392;52.078;11.650;2023-05-12T12:21:21;101053.09;;;29.48;26.72
14612;BME280;7392;52.078;11.650;2023-05-12T12:23:49;101062.44;;;29.21;27.76
14612;BME280;7392;52.078;11.650;2023-05-12T12:26:17;101064.59;;;28.92;28.14
14612;BME280;7392;52.078;11.650;2023-05-12T12:28:46;101055.56;;;28.79;28.43
14612;BME280;7392;52.078;11.650;2023-05-12T12:31:14;101061.16;;;29.01;28.38
14612;BME280;7392;52.078;11.650;2023-05-12T12:33:42;101054.75;;;29.26;28.54
14612;BME280;7392;52.078;11.650;2023-05-12T12:36:12;101054.91;;;29.60;29.00
14612;BME280;7392;52.078;11.650;2023-05-12T12:38:39;101053.47;;;29.79;28.62
14612;BME280;7392;52.078;11.650;2023-05-12T12:41:07;101055.00;;;29.59;26.44
14612;BME280;7392;52.078;11.650;2023-05-12T12:43:35;101060.97;;;29.28;26.31
14612;BME280;7392;52.078;11.650;2023-05-12T12:46:02;101065.78;;;29.01;26.07
14612;BME280;7392;52.078;11.650;2023-05-12T12:48:30;101066.44;;;28.91;26.92
14612;BME280;7392;52.078;11.650;2023-05-12T12:50:59;101056.22;;;29.19;28.26
14612;BME280;7392;52.078;11.650;2023-05-12T12:53:28;101066.09;;;29.33;28.14
14612;BME280;7392;52.078;11.650;2023-05-12T12:55:56;101066.53;;;29.51;28.84
14612;BME280;7392;52.078;11.650;2023-05-12T12:58:24;101055.22;;;29.80;29.06
14612;BME280;7392;52.078;11.650;2023-05-12T13:00:52;101054.16;;;30.16;29.43